createdAt,value
2018-07-20T00:00:43.824Z,18.00
2018-07-20T00:03:11.453Z,18.00
2018-07-20T00:05:39.051Z,17.80
2018-07-20T00:08:06.697Z,17.80
2018-07-20T00:10:34.315Z,17.90
2018-07-20T00:13:02.041Z,17.90
2018-07-20T00:15:29.622Z,18.00
2018-07-20T00:17:57.201Z,18.00
2018-07-20T00:20:24.818Z,18.00
2018-07-20T00:22:52.516Z,18.00
2018-07-20T00:25:20.177Z,17.90
2018-07-20T00:27:47.746Z,17.90
2018-07-20T00:30:15.327Z,17.70
2018-07-20T00:32:42.908Z,17.60
2018-07-20T00:35:10.478Z,17.60
2018-07-20T00:37:38.049Z,17.50
2018-07-20T00:40:05.626Z,17.50
2018-07-20T00:42:33.308Z,17.30
2018-07-20T00:45:00.917Z,17.30
2018-07-20T00:47:28.592Z,17.30
2018-07-20T00:49:56.164Z,17.20
2018-07-20T00:52:23.781Z,17.10
2018-07-20T00:54:51.430Z,17.00
2018-07-20T00:57:19.023Z,17.00
2018-07-20T00:59:46.632Z,16.90
2018-07-20T01:02:14.244Z,16.90
2018-07-20T01:04:42.016Z,17.00
2018-07-20T01:07:09.706Z,17.00
2018-07-20T01:09:37.269Z,16.90
2018-07-20T01:12:04.847Z,16.90
2018-07-20T01:14:32.439Z,16.80
2018-07-20T01:16:59.999Z,16.80
2018-07-20T01:19:27.640Z,16.80
2018-07-20T01:21:55.306Z,16.60
2018-07-20T01:24:22.897Z,16.60
2018-07-20T01:26:50.548Z,16.60
2018-07-20T01:29:18.142Z,16.60
2018-07-20T01:31:45.772Z,16.60
2018-07-20T01:34:13.486Z,16.60
2018-07-20T01:36:41.121Z,16.60
2018-07-20T01:39:09.381Z,16.60
2018-07-20T01:41:36.925Z,16.50
2018-07-20T01:44:04.504Z,16.60
2018-07-20T01:46:32.370Z,16.40
2018-07-20T01:48:59.988Z,16.40
2018-07-20T01:51:27.561Z,16.30
2018-07-20T01:53:55.177Z,16.20
2018-07-20T01:56:22.866Z,16.20
2018-07-20T01:58:50.453Z,16.20
2018-07-20T02:01:18.034Z,16.20
2018-07-20T02:03:45.633Z,16.20
2018-07-20T02:06:13.233Z,16.20
2018-07-20T02:08:40.842Z,16.10
2018-07-20T02:11:08.427Z,16.10
2018-07-20T02:13:36.108Z,16.10
2018-07-20T02:16:03.781Z,16.10
2018-07-20T02:18:31.382Z,16.00
2018-07-20T02:20:58.958Z,15.90
2018-07-20T02:23:26.540Z,15.90
2018-07-20T02:25:54.326Z,15.90
2018-07-20T02:28:21.880Z,15.80
2018-07-20T02:30:49.511Z,15.80
2018-07-20T02:33:17.137Z,15.80
2018-07-20T02:35:44.727Z,15.70
2018-07-20T02:38:12.315Z,15.70
2018-07-20T02:40:40.131Z,15.70
2018-07-20T02:43:07.755Z,15.70
2018-07-20T02:45:35.364Z,15.70
2018-07-20T02:48:03.161Z,15.60
2018-07-20T02:50:30.798Z,15.60
2018-07-20T02:52:58.412Z,15.50
2018-07-20T02:55:26.017Z,15.50
2018-07-20T02:57:53.590Z,15.50
2018-07-20T03:00:21.493Z,15.50
2018-07-20T03:02:49.059Z,15.50
2018-07-20T03:05:16.708Z,15.50
2018-07-20T03:07:44.316Z,15.50
2018-07-20T03:10:11.909Z,15.40
2018-07-20T03:12:39.669Z,15.50
2018-07-20T03:15:07.238Z,15.50
2018-07-20T03:17:34.860Z,15.40
2018-07-20T03:20:02.500Z,15.30
2018-07-20T03:22:30.128Z,15.30
2018-07-20T03:24:57.673Z,15.30
2018-07-20T03:27:25.265Z,15.30
2018-07-20T03:29:52.843Z,15.30
2018-07-20T03:32:20.372Z,15.30
2018-07-20T03:34:47.999Z,15.30
2018-07-20T03:37:15.604Z,15.20
2018-07-20T03:39:43.204Z,15.30
2018-07-20T03:42:10.805Z,15.20
2018-07-20T03:44:38.393Z,15.20
2018-07-20T03:47:06.051Z,15.20
2018-07-20T03:49:33.867Z,15.20
2018-07-20T03:52:01.490Z,15.20
2018-07-20T03:54:29.147Z,15.20
2018-07-20T03:56:56.900Z,15.20
2018-07-20T03:59:24.481Z,15.30
2018-07-20T04:01:52.092Z,15.20
2018-07-20T04:04:19.769Z,15.20
2018-07-20T04:06:47.425Z,15.20
2018-07-20T04:09:15.009Z,15.20
2018-07-20T04:11:42.644Z,15.30
2018-07-20T04:14:10.256Z,15.30
2018-07-20T04:16:37.994Z,15.40
2018-07-20T04:19:05.601Z,15.40
2018-07-20T04:21:33.195Z,15.40
2018-07-20T04:24:00.842Z,15.50
2018-07-20T04:26:28.413Z,15.50
2018-07-20T04:28:55.972Z,15.60
2018-07-20T04:31:23.554Z,15.70
2018-07-20T04:33:51.208Z,15.90
2018-07-20T04:36:18.974Z,15.80
2018-07-20T04:38:46.519Z,15.90
2018-07-20T04:41:14.135Z,16.00
2018-07-20T04:43:41.713Z,16.10
2018-07-20T04:46:09.283Z,16.10
2018-07-20T04:48:36.924Z,16.10
2018-07-20T04:51:04.418Z,16.10
2018-07-20T04:53:32.022Z,16.00
2018-07-20T04:55:59.574Z,16.10
2018-07-20T04:58:27.173Z,16.10
2018-07-20T05:00:54.785Z,16.10
2018-07-20T05:03:22.365Z,16.10
2018-07-20T05:05:50.084Z,16.00
2018-07-20T05:08:17.615Z,16.10
2018-07-20T05:10:45.238Z,16.20
2018-07-20T05:13:12.825Z,16.20
2018-07-20T05:15:40.405Z,16.40
2018-07-20T05:18:07.977Z,16.50
2018-07-20T05:20:35.606Z,16.60
2018-07-20T05:23:03.234Z,16.70
2018-07-20T05:25:30.867Z,16.90
2018-07-20T05:27:58.401Z,17.10
2018-07-20T05:30:25.963Z,17.10
2018-07-20T05:32:53.565Z,17.20
2018-07-20T05:35:21.090Z,17.30
2018-07-20T05:37:48.669Z,17.40
2018-07-20T05:40:16.221Z,17.50
2018-07-20T05:42:43.880Z,17.70
2018-07-20T05:45:11.720Z,17.80
2018-07-20T05:47:39.360Z,17.90
2018-07-20T05:50:07.760Z,18.00
2018-07-20T05:52:35.405Z,18.10
2018-07-20T05:55:03.044Z,18.10
2018-07-20T05:57:30.676Z,18.20
2018-07-20T05:59:58.375Z,18.40
2018-07-20T06:02:25.942Z,18.40
2018-07-20T06:04:53.518Z,18.50
2018-07-20T06:07:21.145Z,18.60
2018-07-20T06:09:48.745Z,18.70
2018-07-20T06:12:16.334Z,18.70
2018-07-20T06:14:43.968Z,18.80
2018-07-20T06:17:11.805Z,18.80
2018-07-20T06:19:39.427Z,18.90
2018-07-20T06:22:07.026Z,19.00
2018-07-20T06:24:34.665Z,19.10
2018-07-20T06:27:02.235Z,19.10
2018-07-20T06:29:30.108Z,19.10
2018-07-20T06:31:57.627Z,19.20
2018-07-20T06:34:25.204Z,19.30
2018-07-20T06:36:52.813Z,19.40
2018-07-20T06:39:20.401Z,19.40
2018-07-20T06:41:48.041Z,19.50
2018-07-20T06:44:15.633Z,19.60
2018-07-20T06:46:43.243Z,19.80
2018-07-20T06:49:10.885Z,20.00
2018-07-20T06:51:38.487Z,20.10
2018-07-20T06:54:06.196Z,20.30
2018-07-20T06:56:33.830Z,20.40
2018-07-20T06:59:01.541Z,20.50
2018-07-20T07:01:29.391Z,20.70
2018-07-20T07:03:57.181Z,21.00
2018-07-20T07:06:24.878Z,21.20
2018-07-20T07:08:52.744Z,21.40
2018-07-20T07:11:20.536Z,21.40
2018-07-20T07:13:48.342Z,21.50
2018-07-20T07:16:16.053Z,21.50
2018-07-20T07:18:43.839Z,21.60
2018-07-20T07:33:29.897Z,22.10
2018-07-20T07:35:57.596Z,22.20
2018-07-20T07:38:30.228Z,22.50
2018-07-20T07:40:58.288Z,22.70
2018-07-20T07:43:35.735Z,22.90
2018-07-20T07:46:03.498Z,23.10
2018-07-20T07:48:31.173Z,23.30
2018-07-20T07:51:15.702Z,23.70
2018-07-20T08:00:09.330Z,24.70
2018-07-20T08:13:32.966Z,25.40
2018-07-20T08:16:00.533Z,25.90
2018-07-20T08:18:28.324Z,25.90
2018-07-20T08:20:57.124Z,26.10
2018-07-20T08:23:25.846Z,26.20
2018-07-20T08:25:53.464Z,26.40
2018-07-20T08:28:21.164Z,26.60
2018-07-20T08:30:49.001Z,26.70
2018-07-20T08:33:16.734Z,26.70
2018-07-20T08:35:44.404Z,26.90
2018-07-20T08:38:12.033Z,27.20
2018-07-20T08:40:39.715Z,27.20
2018-07-20T08:43:07.500Z,27.30
2018-07-20T08:45:35.182Z,27.50
2018-07-20T08:48:13.955Z,27.70
2018-07-20T08:50:42.441Z,27.80
2018-07-20T08:53:10.168Z,28.10
2018-07-20T08:55:37.878Z,28.30
2018-07-20T08:58:05.850Z,28.30
2018-07-20T09:00:33.726Z,28.00
2018-07-20T09:03:06.328Z,28.10
2018-07-20T09:05:35.726Z,28.20
2018-07-20T09:08:09.200Z,28.40
2018-07-20T09:10:36.880Z,28.70
2018-07-20T09:13:09.193Z,28.70
2018-07-20T09:15:36.897Z,28.70
2018-07-20T09:18:04.624Z,29.00
2018-07-20T09:20:32.314Z,29.10
2018-07-20T09:23:00.465Z,29.20
2018-07-20T09:25:28.312Z,29.30
2018-07-20T09:27:55.951Z,29.20
2018-07-20T09:30:23.574Z,29.30
2018-07-20T09:32:51.698Z,29.20
2018-07-20T09:35:19.399Z,29.30
2018-07-20T09:37:49.388Z,29.40
2018-07-20T09:45:57.970Z,29.60
2018-07-20T09:48:25.710Z,29.60
2018-07-20T09:50:53.367Z,29.90
2018-07-20T09:53:21.426Z,29.90
2018-07-20T09:55:49.140Z,30.00
2018-07-20T09:58:16.746Z,29.80
2018-07-20T10:00:50.803Z,30.00
2018-07-20T10:03:19.248Z,30.10
2018-07-20T10:05:50.379Z,30.20
2018-07-20T10:08:19.700Z,30.20
2018-07-20T10:10:47.916Z,30.10
2018-07-20T10:13:16.430Z,30.00
2018-07-20T10:15:44.782Z,29.80
2018-07-20T10:18:12.925Z,29.70
2018-07-20T10:20:46.199Z,29.50
2018-07-20T10:23:13.870Z,29.30
2018-07-20T10:25:41.730Z,29.50
2018-07-20T10:28:09.334Z,29.40
2018-07-20T10:30:37.260Z,29.40
2018-07-20T10:33:05.140Z,29.50
2018-07-20T10:35:32.858Z,29.60
2018-07-20T10:38:00.865Z,29.50
2018-07-20T10:40:28.809Z,29.50
2018-07-20T10:42:58.741Z,29.60
2018-07-20T10:45:29.636Z,29.50
2018-07-20T10:47:58.880Z,29.50
2018-07-20T10:50:26.777Z,29.50
2018-07-20T10:52:54.720Z,29.40
2018-07-20T10:55:22.526Z,29.60
2018-07-20T10:57:50.119Z,29.90
2018-07-20T11:00:17.747Z,30.00
2018-07-20T11:02:45.508Z,30.20
2018-07-20T11:05:13.185Z,30.30
2018-07-20T11:07:40.778Z,30.30
2018-07-20T11:10:08.611Z,30.20
2018-07-20T11:12:36.290Z,30.20
2018-07-20T11:15:04.548Z,30.30
2018-07-20T11:17:32.206Z,30.60
2018-07-20T11:19:59.899Z,30.80
2018-07-20T11:22:27.630Z,30.80
2018-07-20T11:25:08.247Z,30.70
2018-07-20T11:27:35.876Z,30.80
2018-07-20T11:30:03.540Z,30.80
2018-07-20T11:32:31.303Z,30.50
2018-07-20T11:34:59.054Z,30.60
2018-07-20T11:37:26.886Z,30.70
2018-07-20T11:39:54.651Z,30.90
2018-07-20T11:42:22.325Z,31.10
2018-07-20T11:44:50.033Z,31.20
2018-07-20T11:47:27.527Z,31.30
2018-07-20T11:49:55.260Z,31.30
2018-07-20T11:52:23.105Z,31.20
2018-07-20T11:54:50.735Z,31.00
2018-07-20T11:57:18.442Z,30.90
2018-07-20T11:59:46.436Z,30.70
2018-07-20T12:02:16.829Z,30.60
2018-07-20T12:04:54.831Z,30.40
2018-07-20T12:07:22.550Z,30.30
2018-07-20T12:09:50.197Z,30.10
2018-07-20T12:12:17.905Z,30.00
2018-07-20T12:14:45.588Z,30.00
2018-07-20T12:17:13.251Z,30.00
2018-07-20T12:19:40.977Z,29.80
2018-07-20T12:22:08.827Z,29.60
2018-07-20T12:24:38.462Z,29.50
2018-07-20T12:27:06.334Z,29.60
2018-07-20T12:29:34.052Z,29.60
2018-07-20T12:32:01.694Z,29.60
2018-07-20T12:34:29.300Z,29.70
2018-07-20T12:36:56.883Z,29.50
2018-07-20T12:39:31.675Z,29.50
2018-07-20T12:42:04.955Z,29.50
2018-07-20T12:44:34.625Z,29.50
2018-07-20T12:47:15.254Z,29.90
2018-07-20T12:49:44.882Z,29.80
2018-07-20T12:52:18.563Z,30.10
2018-07-20T12:54:51.767Z,30.40
2018-07-20T12:57:27.191Z,30.50
2018-07-20T13:00:03.747Z,30.40
2018-07-20T13:02:31.483Z,30.50
2018-07-20T13:05:00.180Z,30.40
2018-07-20T13:07:27.878Z,30.00
2018-07-20T13:09:55.495Z,29.90
2018-07-20T13:12:23.053Z,29.80
2018-07-20T13:14:50.648Z,29.60
2018-07-20T13:17:18.286Z,29.70
2018-07-20T13:19:46.069Z,29.80
2018-07-20T13:22:13.756Z,30.10
2018-07-20T13:24:41.561Z,30.40
2018-07-20T13:27:09.844Z,30.50
2018-07-20T13:29:37.880Z,30.70
2018-07-20T13:32:06.395Z,30.60
2018-07-20T13:34:34.147Z,30.70
2018-07-20T13:37:01.747Z,30.60
2018-07-20T13:39:29.396Z,30.50
2018-07-20T13:41:56.970Z,30.60
2018-07-20T13:44:24.537Z,30.90
2018-07-20T13:46:52.191Z,30.90
2018-07-20T13:49:19.793Z,30.80
2018-07-20T13:51:47.478Z,30.90
2018-07-20T13:54:15.216Z,30.70
2018-07-20T13:56:42.852Z,30.70
2018-07-20T13:59:12.272Z,30.50
2018-07-20T14:01:39.982Z,30.20
2018-07-20T14:04:07.576Z,30.00
2018-07-20T14:06:35.776Z,29.90
2018-07-20T14:16:10.566Z,29.80
2018-07-20T14:18:38.199Z,29.70
2018-07-20T14:21:05.808Z,29.40
2018-07-20T14:23:34.157Z,29.30
2018-07-20T14:26:01.791Z,29.20
2018-07-20T14:28:29.485Z,29.10
2018-07-20T14:30:57.142Z,29.20
2018-07-20T14:33:24.877Z,29.10
2018-07-20T14:35:52.502Z,29.10
2018-07-20T14:38:20.089Z,29.20
2018-07-20T14:40:47.804Z,29.40
2018-07-20T14:43:15.422Z,29.40
2018-07-20T14:45:43.049Z,29.60
2018-07-20T14:48:10.693Z,29.50
2018-07-20T14:50:38.344Z,29.50
2018-07-20T14:53:06.006Z,29.60
2018-07-20T14:55:33.607Z,29.50
2018-07-20T14:58:01.198Z,29.60
2018-07-20T15:00:28.849Z,29.70
2018-07-20T15:02:56.446Z,29.90
2018-07-20T15:05:24.014Z,29.80
2018-07-20T15:07:51.676Z,29.70
2018-07-20T15:10:19.295Z,29.80
2018-07-20T15:12:46.861Z,29.80
2018-07-20T15:15:14.477Z,29.60
2018-07-20T15:17:42.124Z,29.60
2018-07-20T15:20:09.831Z,29.60
2018-07-20T15:22:37.387Z,29.70
2018-07-20T15:25:05.100Z,29.60
2018-07-20T15:27:32.768Z,29.70
2018-07-20T15:30:00.302Z,29.90
2018-07-20T15:32:27.847Z,29.90
2018-07-20T15:34:55.435Z,30.00
2018-07-20T15:37:22.961Z,30.10
2018-07-20T15:39:50.705Z,30.10
2018-07-20T15:42:18.302Z,30.10
2018-07-20T15:44:46.004Z,30.00
2018-07-20T15:47:13.654Z,30.00
2018-07-20T15:49:41.288Z,30.00
2018-07-20T15:54:36.610Z,30.10
2018-07-20T15:57:04.354Z,30.00
2018-07-20T15:59:32.061Z,30.00
2018-07-20T16:01:59.592Z,29.90
2018-07-20T16:04:27.213Z,29.80
2018-07-20T16:06:54.879Z,29.80
2018-07-20T16:09:23.579Z,29.70
2018-07-20T16:11:51.238Z,29.50
2018-07-20T16:14:18.818Z,29.30
2018-07-20T16:16:46.459Z,29.30
2018-07-20T16:19:14.069Z,29.40
2018-07-20T16:21:41.593Z,29.60
2018-07-20T16:24:09.271Z,29.50
2018-07-20T16:26:36.966Z,29.50
2018-07-20T16:29:07.610Z,29.50
2018-07-20T16:31:35.305Z,29.60
2018-07-20T16:34:03.006Z,29.70
2018-07-20T16:36:30.593Z,29.70
2018-07-20T16:38:58.546Z,29.70
2018-07-20T16:41:26.204Z,29.60
2018-07-20T16:43:53.762Z,29.70
2018-07-20T16:46:21.332Z,29.70
2018-07-20T16:48:49.743Z,29.60
2018-07-20T16:51:22.401Z,29.60
2018-07-20T16:53:50.087Z,29.50
2018-07-20T16:56:17.638Z,29.50
2018-07-20T16:58:45.183Z,29.40
2018-07-20T17:01:12.746Z,29.40
2018-07-20T17:03:40.310Z,29.40
2018-07-20T17:06:08.021Z,29.40
2018-07-20T17:08:37.774Z,29.30
2018-07-20T17:11:05.307Z,29.30
2018-07-20T17:13:33.020Z,29.30
2018-07-20T17:16:00.661Z,29.30
2018-07-20T17:18:28.321Z,29.30
2018-07-20T17:20:56.030Z,29.20
2018-07-20T17:23:23.765Z,29.10
2018-07-20T17:25:51.332Z,29.00
2018-07-20T17:28:19.002Z,28.90
2018-07-20T17:30:47.895Z,28.90
2018-07-20T17:33:16.016Z,28.70
2018-07-20T17:35:43.959Z,28.70
2018-07-20T17:38:11.979Z,28.70
2018-07-20T17:40:39.737Z,28.60
2018-07-20T17:43:09.029Z,28.60
2018-07-20T17:45:37.113Z,28.60
2018-07-20T17:48:04.873Z,28.50
2018-07-20T17:50:32.865Z,28.50
2018-07-20T17:53:02.751Z,28.40
2018-07-20T17:55:32.809Z,28.50
2018-07-20T17:58:05.850Z,28.40
2018-07-20T18:00:37.649Z,28.40
2018-07-20T18:03:05.972Z,28.30
2018-07-20T18:05:35.902Z,28.30
2018-07-20T18:08:05.985Z,28.30
2018-07-20T18:10:34.335Z,28.30
2018-07-20T18:13:02.592Z,28.20
2018-07-20T18:15:31.569Z,28.20
2018-07-20T18:17:59.618Z,28.20
2018-07-20T18:20:29.581Z,28.10
2018-07-20T18:22:58.959Z,28.00
2018-07-20T18:25:26.689Z,27.80
2018-07-20T18:27:54.301Z,27.80
2018-07-20T18:30:22.011Z,27.80
2018-07-20T18:32:49.657Z,27.80
2018-07-20T18:35:17.266Z,27.90
2018-07-20T18:37:44.805Z,27.90
2018-07-20T18:40:12.500Z,28.00
2018-07-20T18:42:40.071Z,28.00
2018-07-20T18:45:07.879Z,27.90
2018-07-20T18:47:35.619Z,27.90
2018-07-20T18:50:03.837Z,27.80
2018-07-20T18:52:31.396Z,27.70
2018-07-20T18:54:59.036Z,27.70
2018-07-20T18:57:26.538Z,27.50
2018-07-20T18:59:54.148Z,27.40
2018-07-20T19:02:21.702Z,27.30
2018-07-20T19:04:49.249Z,27.30
2018-07-20T19:07:16.801Z,27.20
2018-07-20T19:09:44.342Z,27.30
2018-07-20T19:12:11.871Z,27.10
2018-07-20T19:14:39.436Z,26.90
2018-07-20T19:17:07.048Z,26.70
2018-07-20T19:19:34.653Z,26.50
2018-07-20T19:22:02.619Z,26.50
2018-07-20T19:24:30.179Z,26.30
2018-07-20T19:26:57.774Z,26.20
2018-07-20T19:29:25.272Z,26.00
2018-07-20T19:31:52.816Z,25.80
2018-07-20T19:34:20.390Z,25.70
2018-07-20T19:36:48.004Z,25.50
2018-07-20T19:39:15.651Z,25.40
2018-07-20T19:41:43.238Z,25.40
2018-07-20T19:44:10.851Z,25.40
2018-07-20T19:46:38.450Z,25.30
2018-07-20T19:49:06.072Z,25.30
2018-07-20T19:51:33.833Z,25.10
2018-07-20T19:54:01.574Z,25.10
2018-07-20T19:56:29.162Z,25.00
2018-07-20T19:58:56.816Z,24.90
2018-07-20T20:01:24.334Z,24.80
2018-07-20T20:03:51.910Z,24.80
2018-07-20T20:06:19.478Z,24.80
2018-07-20T20:08:47.152Z,24.80
2018-07-20T20:11:14.710Z,24.80
2018-07-20T20:13:42.281Z,24.80
2018-07-20T20:16:09.836Z,24.80
2018-07-20T20:18:37.495Z,24.80
2018-07-20T20:21:05.190Z,24.80
2018-07-20T20:23:32.886Z,24.80
2018-07-20T20:26:00.574Z,24.80
2018-07-20T20:28:28.142Z,24.90
2018-07-20T20:30:55.721Z,24.80
2018-07-20T20:33:23.381Z,24.70
2018-07-20T20:35:51.041Z,24.70
2018-07-20T20:38:18.719Z,24.60
2018-07-20T20:40:46.343Z,24.50
2018-07-20T20:43:13.884Z,24.60
2018-07-20T20:45:41.447Z,24.50
2018-07-20T20:48:09.163Z,24.50
2018-07-20T20:50:36.767Z,24.40
2018-07-20T20:53:04.338Z,24.20
2018-07-20T20:55:31.941Z,24.20
2018-07-20T20:57:59.494Z,24.10
2018-07-20T21:00:27.281Z,23.90
2018-07-20T21:02:57.035Z,23.80
2018-07-20T21:05:24.765Z,23.70
2018-07-20T21:07:52.998Z,23.60
2018-07-20T21:10:20.644Z,23.50
2018-07-20T21:15:34.383Z,23.40
2018-07-20T21:18:02.338Z,23.40
2018-07-20T21:20:29.889Z,23.50
2018-07-20T21:22:57.478Z,23.50
2018-07-20T21:25:25.073Z,23.50
2018-07-20T21:27:52.641Z,23.50
2018-07-20T21:30:20.285Z,23.50
2018-07-20T21:32:52.888Z,23.50
2018-07-20T21:35:20.487Z,23.50
2018-07-20T21:37:48.075Z,23.40
2018-07-20T21:40:15.813Z,23.30
2018-07-20T21:42:43.352Z,23.20
2018-07-20T21:45:10.953Z,23.10
2018-07-20T21:47:38.549Z,23.00
2018-07-20T21:50:06.162Z,22.80
2018-07-20T22:03:40.806Z,22.70
2018-07-20T22:06:50.758Z,22.60
2018-07-20T22:09:20.157Z,22.50
2018-07-20T22:11:49.469Z,22.30
2018-07-20T22:14:17.226Z,22.20
2018-07-20T22:16:44.850Z,22.10
2018-07-20T22:19:12.549Z,22.10
2018-07-20T22:21:40.207Z,22.00
2018-07-20T22:24:07.832Z,22.00
2018-07-20T22:26:35.552Z,22.00
2018-07-20T22:29:03.195Z,22.00
2018-07-20T22:31:30.838Z,22.00
2018-07-20T22:33:58.422Z,21.90
2018-07-20T22:36:26.062Z,21.90
2018-07-20T22:38:53.724Z,21.90
2018-07-20T22:41:21.414Z,21.80
2018-07-20T22:43:49.031Z,21.70
2018-07-20T22:46:16.739Z,21.60
2018-07-20T22:48:44.480Z,21.60
2018-07-20T22:51:12.185Z,21.50
2018-07-20T22:53:39.819Z,21.40
2018-07-20T22:56:07.443Z,21.40
2018-07-20T22:58:35.042Z,21.30
2018-07-20T23:01:02.711Z,21.30
2018-07-20T23:03:31.550Z,21.20
2018-07-20T23:05:59.240Z,21.10
2018-07-20T23:08:26.917Z,21.10
2018-07-20T23:10:54.568Z,21.10
2018-07-20T23:13:22.189Z,21.00
2018-07-20T23:15:49.822Z,21.00
2018-07-20T23:18:17.550Z,21.00
2018-07-20T23:20:45.255Z,20.90
2018-07-20T23:23:13.315Z,20.90
2018-07-20T23:25:40.931Z,21.00
2018-07-20T23:28:08.543Z,21.00
2018-07-20T23:30:36.311Z,21.00
2018-07-20T23:33:04.006Z,21.10
2018-07-20T23:35:31.675Z,21.00
2018-07-20T23:37:59.323Z,20.90
2018-07-20T23:40:27.020Z,20.90
2018-07-20T23:42:54.667Z,20.90
2018-07-20T23:45:22.310Z,20.90
2018-07-20T23:47:49.994Z,20.80
2018-07-20T23:50:17.636Z,20.70
2018-07-20T23:52:45.306Z,20.70
2018-07-20T23:55:13.076Z,20.60
2018-07-20T23:57:40.717Z,20.60
